Croton Falls, New York
Current Conditions -  °F | °C
As of 3:53 PM on Saturday 22 Nov 2014 (Local Time) from KDXR Reporting Station
Overcast Overcast  
Wind Chill: 34°   Ceiling: 7000
Heat Index: 40°   Visibility: 10mi
Dew Point:   Wind: 8mph
Humidity: 27%   Direction: 220°SW
Pressure: 30.23"   Gusts: 16mph
Location:  41.35°N, 73.66°W
Report Text: KDXR 222053Z 22007G14KT 190V250 10SM OVC070 04/M13 A3023 RMK AO2 SLP241 T00441133 56021
Loading
Personal Weather Stations






























Interactive Weather Map New forecast layout! Learn more

10-Day Weather Forecast

Advertisements
Track Severe Weather on mobile